Time;durP1;ratioP1;P1;durP2;ratioP2;P2;SDS_P1;SDS_P2;PMS_P1;PMS_P2;Temp;Humidity;BMP_temperature;BMP_pressure;BME280_temperature;BME280_humidity;BME280_pressure;Samples;Min_cycle;Max_cycle;Signal;HPM_P1;HPM_P2
2022/04/21 06:13:15;;;;;;;14.60;10.50;;;;;;;11.54;60.74;101331.00;4874227;28;118708;-93
2022/04/21 06:15:45;;;;;;;13.77;10.80;;;;;;;11.78;60.46;101336.16;4852693;29;123448;-94
2022/04/21 06:18:52;;;;;;;12.65;9.25;;;;;;;11.78;58.28;101311.41;4854161;29;118496;-92
2022/04/21 06:21:34;;;;;;;14.13;9.02;;;;;;;11.97;59.39;101329.66;4793474;29;121397;-95
2022/04/21 06:33:00;;;;;;;9.32;7.50;;;;;;;12.83;56.45;101388.75;4835168;29;122274;-92
2022/04/21 06:35:27;;;;;;;10.20;7.70;;;;;;;12.41;56.77;101296.72;4803808;29;118500;-93
2022/04/21 06:37:53;;;;;;;11.00;8.10;;;;;;;12.67;56.98;101331.16;4819791;29;121308;-92
2022/04/21 06:48:34;;;;;;;10.32;7.18;;;;;;;13.07;55.41;101333.97;4840996;29;118659;-93
2022/04/21 06:51:00;;;;;;;9.70;6.60;;;;;;;12.96;54.33;101308.06;4839827;29;119571;-93
2022/04/21 06:53:26;;;;;;;11.20;6.80;;;;;;;13.28;53.06;101346.22;4838757;29;121930;-93
2022/04/21 06:55:51;;;;;;;9.80;6.47;;;;;;;13.14;53.00;101319.16;4855698;28;120505;-93
2022/04/21 06:58:17;;;;;;;8.00;6.45;;;;;;;13.60;52.89;101377.25;4830294;29;119081;-92
2022/04/21 07:00:43;;;;;;;7.18;5.57;;;;;;;13.30;52.24;101315.44;4801875;29;120735;-92
2022/04/21 07:03:09;;;;;;;8.40;5.78;;;;;;;13.57;52.13;101343.09;4851769;29;121243;-93
2022/04/21 07:05:35;;;;;;;8.80;6.35;;;;;;;13.66;52.75;101345.09;4841644;29;119283;-92
2022/04/21 07:08:01;;;;;;;9.63;6.00;;;;;;;13.48;52.40;101305.22;4837969;29;121694;-94
2022/04/21 07:10:34;;;;;;;9.20;5.72;;;;;;;13.86;50.61;101353.72;4839250;29;118513;-93
2022/04/21 07:13:10;;;;;;;7.28;5.90;;;;;;;13.66;51.46;101309.25;4840220;29;119778;-93
2022/04/21 07:15:37;;;;;;;6.63;5.78;;;;;;;13.63;51.12;101310.19;4836684;29;121637;-92
2022/04/21 07:18:03;;;;;;;9.05;5.65;;;;;;;14.23;52.31;101393.19;4838604;29;118523;-92
2022/04/21 07:20:31;;;;;;;8.48;5.10;;;;;;;14.05;51.68;101360.06;4833213;29;120111;-93
2022/04/21 07:22:56;;;;;;;10.95;5.20;;;;;;;13.88;49.54;101320.94;4831117;29;122336;-92
2022/04/21 07:25:22;;;;;;;7.53;5.22;;;;;;;13.97;49.96;101339.50;4851250;29;119245;-94
2022/04/21 07:27:48;;;;;;;7.38;5.68;;;;;;;13.91;50.61;101320.03;4824925;29;122091;-93
2022/04/21 07:30:14;;;;;;;11.10;5.90;;;;;;;14.02;50.63;101323.13;4828611;29;118588;-93
2022/04/21 07:32:44;;;;;;;11.65;5.38;;;;;;;14.08;48.86;101321.28;4819420;29;119683;-93
2022/04/21 07:35:10;;;;;;;10.35;5.57;;;;;;;14.33;48.92;101366.34;4803489;29;121859;-92
2022/04/21 07:37:37;;;;;;;8.75;5.47;;;;;;;14.24;49.19;101330.50;4821912;29;118622;-93
2022/04/21 07:40:20;;;;;;;9.38;5.70;;;;;;;14.25;48.70;101313.47;4825898;29;120462;-92
2022/04/21 07:43:12;;;;;;;9.05;5.85;;;;;;;14.61;49.38;101356.09;4848900;29;121910;-94
2022/04/21 07:45:41;;;;;;;7.30;5.80;;;;;;;14.47;48.86;101316.09;4852627;28;118513;-94
2022/04/21 07:48:15;;;;;;;6.88;5.03;;;;;;;15.04;49.22;101383.34;4835931;29;122200;-92
2022/04/21 07:50:54;;;;;;;10.90;6.18;;;;;;;14.86;48.76;101347.47;4839801;29;121678;-93
2022/04/21 07:53:33;;;;;;;9.40;6.68;;;;;;;15.23;48.05;101383.31;4837884;29;120817;-92
2022/04/21 07:56:46;;;;;;;11.88;7.43;;;;;;;14.93;48.80;101330.59;4856788;29;119517;-95
2022/04/21 07:59:12;;;;;;;12.43;8.20;;;;;;;15.05;49.40;101323.31;4836056;29;118538;-93
2022/04/21 08:01:48;;;;;;;13.80;7.57;;;;;;;15.25;48.88;101340.16;4825312;29;121109;-93
2022/04/21 08:04:26;;;;;;;17.00;9.38;;;;;;;15.48;49.10;101363.53;4834071;29;122253;-92
2022/04/21 08:11:05;;;;;;;12.52;7.78;;;;;;;15.79;48.80;101393.69;4847519;29;119812;-93
2022/04/21 08:13:36;;;;;;;11.35;8.88;;;;;;;15.81;50.11;101399.50;4850283;29;119915;-92
2022/04/21 08:16:36;;;;;;;13.50;8.05;;;;;;;15.47;49.86;101339.13;4824800;29;119063;-93
2022/04/21 08:20:16;;;;;;;12.52;8.57;;;;;;;15.86;49.78;101395.38;4844140;29;119303;-93
2022/04/21 08:34:02;;;;;;;15.35;11.18;;;;;;;15.96;52.37;101411.44;4850550;28;118733;-93
2022/04/21 08:37:15;;;;;;;15.43;11.13;;;;;;;15.71;52.39;101375.91;4818427;29;119493;-93
2022/04/21 08:39:57;;;;;;;16.00;10.88;;;;;;;16.12;52.76;101404.72;4829770;29;122125;-92
2022/04/21 08:43:18;;;;;;;15.07;11.32;;;;;;;15.74;52.96;101336.25;4831452;29;119073;-92
2022/04/21 08:46:29;;;;;;;14.32;11.23;;;;;;;16.31;53.55;101408.13;4800173;29;121821;-93
2022/04/21 08:48:55;;;;;;;18.98;11.80;;;;;;;16.04;52.80;101369.56;4816897;29;118692;-93
2022/04/21 08:51:25;;;;;;;22.55;11.60;;;;;;;15.84;52.87;101346.00;4802788;29;121371;-93
2022/04/21 08:53:56;;;;;;;14.52;10.73;;;;;;;15.82;52.56;101351.25;4800124;29;122784;-93
2022/04/21 08:56:24;;;;;;;18.20;10.88;;;;;;;15.78;52.52;101347.13;4802848;29;118603;-93
2022/04/21 08:58:54;;;;;;;13.98;11.00;;;;;;;16.05;52.52;101382.16;4833037;29;119804;-93
2022/04/21 09:01:29;;;;;;;13.52;10.57;;;;;;;16.19;52.57;101417.44;4831396;29;120831;-92
2022/04/21 09:04:01;;;;;;;13.02;11.20;;;;;;;16.19;52.89;101415.44;4848796;29;119839;-92
2022/04/21 09:06:30;;;;;;;16.85;10.57;;;;;;;15.96;52.66;101381.00;4828159;29;122047;-93
2022/04/21 09:09:40;;;;;;;12.73;9.35;;;;;;;16.26;51.88;101420.63;4833400;29;118522;-94
2022/04/21 09:12:28;;;;;;;13.60;10.02;;;;;;;15.79;50.73;101354.97;4833364;29;121233;-93
2022/04/21 09:14:57;;;;;;;16.35;10.95;;;;;;;16.02;51.38;101394.94;4817527;29;122801;-93
2022/04/21 09:18:07;;;;;;;15.60;10.07;;;;;;;15.76;51.03;101347.59;4835269;29;118586;-93
2022/04/21 09:21:14;;;;;;;14.80;10.73;;;;;;;16.14;50.97;101416.09;4843301;29;118505;-93
2022/04/21 09:24:29;;;;;;;13.50;9.75;;;;;;;15.73;50.91;101351.31;4853698;28;119725;-93
2022/04/21 09:27:44;;;;;;;14.50;10.80;;;;;;;15.71;50.54;101342.72;4828101;29;119297;-93
2022/04/21 09:30:31;;;;;;;14.57;9.90;;;;;;;15.77;51.98;101338.06;4819032;29;119208;-92
2022/04/21 09:33:02;;;;;;;17.20;10.00;;;;;;;15.96;51.25;101341.50;4817014;28;124177;-95
2022/04/21 09:35:37;;;;;;;13.05;9.13;;;;;;;15.87;50.74;101313.91;4830950;28;123804;-93
2022/04/21 09:38:12;;;;;;;12.13;9.20;;;;;;;15.99;51.61;101323.19;4848128;28;121946;-94
2022/04/21 09:40:53;;;;;;;13.43;9.18;;;;;;;16.31;50.66;101366.59;4844514;28;119396;-94
2022/04/21 09:43:53;;;;;;;14.02;9.85;;;;;;;16.50;50.02;101386.59;4836101;28;121837;-95
2022/04/21 09:46:56;;;;;;;12.10;7.93;;;;;;;16.57;50.52;101394.56;4847862;28;121947;-94
2022/04/21 09:53:11;;;;;;;10.90;6.72;;;;;;;16.37;47.61;101339.03;4859347;28;121142;-94
2022/04/21 09:56:12;;;;;;;10.15;7.20;;;;;;;16.29;45.96;101316.47;4841656;28;121575;-94
2022/04/21 09:59:13;;;;;;;8.30;5.97;;;;;;;16.69;46.10;101390.00;4858326;28;118644;-94
2022/04/21 10:02:08;;;;;;;7.38;5.70;;;;;;;16.26;44.30;101325.72;4837706;28;122156;-94
2022/04/21 10:08:29;;;;;;;8.00;5.65;;;;;;;16.48;43.30;101378.75;4837435;29;120494;-93
2022/04/21 10:11:12;;;;;;;7.93;4.85;;;;;;;16.22;43.90;101339.75;4820183;29;119674;-94
2022/04/21 10:13:58;;;;;;;8.52;5.10;;;;;;;16.25;44.27;101336.03;4826144;29;119323;-93
2022/04/21 10:16:29;;;;;;;7.80;5.45;;;;;;;16.61;44.82;101377.75;4836093;29;119006;-93
2022/04/21 10:19:01;;;;;;;7.15;5.40;;;;;;;16.28;45.06;101312.19;4839364;29;120850;-94
2022/04/21 10:21:48;;;;;;;6.57;4.70;;;;;;;16.84;44.04;101369.41;4827881;29;120081;-94
2022/04/21 10:41:45;;;;;;;7.25;5.13;;;;;;;16.56;41.72;101298.84;3192019;23;126799;-94
2022/04/21 10:44:15;;;;;;;6.35;4.78;;;;;;;16.60;41.60;101304.22;4860124;28;118676;-94
2022/04/21 10:46:42;;;;;;;10.00;6.05;;;;;;;16.99;40.90;101374.16;4857345;28;122185;-94
2022/04/21 10:49:09;;;;;;;8.52;5.53;;;;;;;16.94;41.33;101358.97;4875600;28;121021;-94
2022/04/21 10:57:17;;;;;;;6.70;5.00;;;;;;;16.67;40.80;101298.31;4839100;29;118524;-94
2022/04/21 11:00:22;;;;;;;7.97;5.97;;;;;;;16.78;42.23;101287.41;4847585;29;120980;-94
2022/04/21 11:03:03;;;;;;;9.13;5.88;;;;;;;17.22;42.49;101353.88;4854868;28;122961;-92
2022/04/21 11:05:34;;;;;;;8.07;5.05;;;;;;;16.85;41.67;101287.03;4835657;28;118675;-94
2022/04/21 11:08:02;;;;;;;7.45;5.07;;;;;;;16.94;41.84;101275.84;4862377;28;119326;-95
2022/04/21 11:10:37;;;;;;;5.90;5.03;;;;;;;17.46;40.84;101368.38;4846736;28;121932;-93
2022/04/21 11:13:08;;;;;;;7.45;5.32;;;;;;;16.96;40.32;101280.91;4857946;28;118756;-94
2022/04/21 11:15:44;;;;;;;7.25;4.50;;;;;;;17.16;39.50;101323.31;4875498;28;120642;-93
2022/04/21 11:18:15;;;;;;;6.50;4.60;;;;;;;17.38;40.06;101352.63;4855877;28;118554;-93
2022/04/21 11:20:48;;;;;;;7.78;5.20;;;;;;;17.16;39.48;101303.13;4852284;28;121066;-94
2022/04/21 11:24:14;;;;;;;6.38;5.40;;;;;;;17.53;40.99;101350.59;4849049;28;121584;-93
2022/04/21 11:34:28;;;;;;;8.20;6.00;;;;;;;17.22;40.14;101292.13;4871499;28;119696;-94
2022/04/21 11:37:54;;;;;;;8.70;5.93;;;;;;;17.31;40.95;101294.81;4824323;28;120083;-94
2022/04/21 11:40:56;;;;;;;11.38;5.88;;;;;;;17.59;40.76;101331.25;4867732;28;122821;-93
2022/04/21 11:43:32;;;;;;;8.10;5.88;;;;;;;17.60;40.77;101321.66;4836011;28;118756;-94
2022/04/21 11:46:06;;;;;;;9.88;6.30;;;;;;;17.36;40.27;101292.09;4861600;28;120514;-94
2022/04/21 11:48:58;;;;;;;7.38;5.55;;;;;;;17.80;40.51;101349.47;4835599;28;122289;-90
2022/04/21 11:52:14;;;;;;;4.47;4.07;;;;;;;17.46;39.50;101293.50;4838534;28;118668;-93
2022/04/21 11:55:38;;;;;;;6.03;4.57;;;;;;;17.52;40.25;101288.03;4803383;29;122036;-93
2022/04/21 12:08:12;;;;;;;4.10;3.42;;;;;;;17.53;37.92;101272.94;4810733;29;118562;-93
2022/04/21 12:11:06;;;;;;;6.55;3.33;;;;;;;17.98;38.42;101351.19;4792150;29;120958;-94
2022/04/21 12:14:04;;;;;;;8.07;3.63;;;;;;;17.72;38.19;101296.38;4802360;29;121026;-94
2022/04/21 12:16:40;;;;;;;6.70;3.08;;;;;;;17.77;38.92;101297.72;4827517;29;119195;-92
2022/04/21 12:19:32;;;;;;;4.65;3.53;;;;;;;17.83;38.07;101295.00;4824395;29;121808;-95
2022/04/21 12:21:58;;;;;;;4.97;2.95;;;;;;;18.18;37.56;101345.66;4815020;29;121605;-93
2022/04/21 12:24:30;;;;;;;4.30;2.65;;;;;;;17.98;37.65;101315.91;4827244;29;118842;-93
2022/04/21 12:26:56;;;;;;;6.65;3.17;;;;;;;18.05;38.19;101312.69;4819892;29;120904;-95
2022/04/21 12:29:25;;;;;;;7.05;3.03;;;;;;;17.91;36.84;101285.00;4823202;29;121522;-93
2022/04/21 12:31:54;;;;;;;6.57;2.40;;;;;;;18.00;37.55;101288.41;4853313;28;120646;-94
2022/04/21 12:34:26;;;;;;;4.03;2.50;;;;;;;18.05;37.14;101284.19;4844519;28;122881;-93
2022/04/21 12:36:54;;;;;;;4.15;2.42;;;;;;;18.06;36.55;101288.47;4870788;28;118970;-92
2022/04/21 12:39:21;;;;;;;4.40;2.40;;;;;;;18.29;36.36;101331.91;4843023;28;120853;-94
2022/04/21 12:41:47;;;;;;;5.30;2.85;;;;;;;18.24;36.46;101320.75;4839381;28;122977;-93
2022/04/21 12:44:14;;;;;;;5.28;2.70;;;;;;;17.98;37.13;101285.38;4857832;28;119192;-93
2022/04/21 12:46:42;;;;;;;5.97;2.85;;;;;;;18.25;36.67;101325.03;4855136;28;120871;-93
2022/04/21 12:49:09;;;;;;;6.38;3.05;;;;;;;18.26;36.89;101327.31;4862688;28;121964;-93
2022/04/21 12:51:35;;;;;;;9.48;3.42;;;;;;;18.06;37.33;101303.13;4825114;29;118667;-92
2022/04/21 12:54:01;;;;;;;7.35;3.30;;;;;;;18.36;37.86;101336.25;4850018;28;121279;-95
2022/04/21 12:56:35;;;;;;;5.50;3.15;;;;;;;17.91;37.57;101271.13;4841050;28;118686;-93
2022/04/21 12:59:02;;;;;;;9.80;3.40;;;;;;;17.99;37.85;101284.13;4841152;28;122141;-93
2022/04/21 13:01:28;;;;;;;4.07;3.20;;;;;;;18.05;38.02;101286.94;4874541;28;121786;-93
2022/04/21 13:04:00;;;;;;;4.25;3.50;;;;;;;18.01;38.50;101270.50;4875542;28;120337;-94
2022/04/21 13:06:47;;;;;;;4.43;3.60;;;;;;;18.03;38.08;101270.78;4834741;28;121447;-93
2022/04/21 13:09:25;;;;;;;5.72;3.63;;;;;;;18.16;38.17;101286.31;4858668;28;121566;-95
2022/04/21 13:12:02;;;;;;;5.53;3.25;;;;;;;17.94;37.12;101261.84;4865049;28;119056;-94
2022/04/21 13:14:41;;;;;;;4.85;3.10;;;;;;;18.34;37.14;101328.41;4856821;28;121248;-94
2022/04/21 13:17:56;;;;;;;7.60;3.55;;;;;;;18.34;37.27;101327.66;4862855;28;118756;-96
2022/04/21 13:23:47;;;;;;;9.73;4.50;;;;;;;18.29;37.62;101320.03;4857318;28;121645;-94
2022/04/21 13:29:33;;;;;;;7.53;3.80;;;;;;;17.82;37.02;101258.19;4869421;28;120077;-93
2022/04/21 13:52:13;;;;;;;8.23;4.53;;;;;;;18.14;39.35;101334.00;4859759;28;119547;-93
2022/04/21 13:54:42;;;;;;;6.38;4.32;;;;;;;18.16;39.46;101342.59;4837823;28;118854;-94
2022/04/21 13:57:14;;;;;;;8.77;4.10;;;;;;;18.17;39.70;101335.03;4835818;28;120912;-93
2022/04/21 15:17:08;;;;;;;11.88;4.90;;;;;;;18.14;39.57;101313.78;4869086;28;118563;-94
2022/04/21 15:59:25;;;;;;;10.63;5.43;;;;;;;17.79;40.79;101284.13;4788239;29;120092;-94
2022/04/21 16:02:02;;;;;;;8.35;5.22;;;;;;;18.01;40.72;101314.16;4770049;29;121508;-93
2022/04/21 16:05:07;;;;;;;10.43;5.40;;;;;;;17.75;40.77;101275.25;4769859;29;118736;-93
2022/04/21 16:07:53;;;;;;;9.07;5.82;;;;;;;18.01;41.02;101311.38;4758579;29;122708;-92
2022/04/21 16:10:26;;;;;;;9.13;5.40;;;;;;;18.00;40.93;101316.19;4777609;29;121836;-92
2022/04/21 16:13:20;;;;;;;10.57;6.32;;;;;;;17.96;41.24;101323.16;4785789;29;119317;-95
2022/04/21 19:04:43;;;;;;;12.00;6.95;;;;;;;15.18;50.85;101368.13;4587422;23;122378;-82
2022/04/21 19:07:09;;;;;;;10.23;6.88;;;;;;;15.17;51.04;101376.88;4809283;29;120201;-82
2022/04/21 19:12:19;;;;;;;9.20;6.13;;;;;;;14.98;50.88;101365.88;4810264;29;124216;-80
2022/04/21 19:14:51;;;;;;;11.85;6.38;;;;;;;14.97;50.85;101372.63;4809202;29;119972;-80
2022/04/21 19:17:17;;;;;;;12.45;6.20;;;;;;;14.98;50.75;101376.16;4794944;29;121086;-81
2022/04/21 19:19:43;;;;;;;10.20;5.80;;;;;;;14.88;49.94;101371.84;4792053;29;123767;-80
2022/04/21 19:22:12;;;;;;;11.50;6.07;;;;;;;14.84;50.16;101377.53;4823333;28;119644;-83
2022/04/21 19:24:38;;;;;;;9.38;5.88;;;;;;;14.71;50.06;101365.91;4812485;29;120391;-80
2022/04/21 19:27:10;;;;;;;9.95;6.20;;;;;;;14.73;50.20;101377.28;4811081;29;122754;-80
2022/04/21 19:29:37;;;;;;;10.75;6.07;;;;;;;14.68;49.69;101381.41;4792897;29;120254;-80
2022/04/21 19:32:04;;;;;;;9.38;5.20;;;;;;;14.62;49.48;101374.97;4790337;29;122749;-81
2022/04/21 19:34:31;;;;;;;9.13;5.63;;;;;;;14.54;49.81;101371.00;4778566;29;120003;-81
2022/04/21 19:36:58;;;;;;;13.15;5.65;;;;;;;14.56;49.54;101381.56;4796220;29;121642;-81
2022/04/21 19:39:23;;;;;;;11.70;5.50;;;;;;;14.49;49.50;101388.19;4804801;29;121123;-81
2022/04/21 19:41:49;;;;;;;10.93;5.80;;;;;;;14.43;49.88;101382.50;4806374;29;119858;-80
2022/04/21 19:44:15;;;;;;;8.73;5.40;;;;;;;14.36;50.00;101365.44;4811674;29;122099;-84
2022/04/21 19:46:41;;;;;;;9.45;5.20;;;;;;;14.42;50.12;101380.16;4813346;29;120283;-80
2022/04/21 19:49:09;;;;;;;9.98;5.35;;;;;;;14.40;49.67;101375.09;4810995;29;119843;-82
2022/04/21 19:51:35;;;;;;;12.75;5.72;;;;;;;14.35;49.93;101380.47;4798219;29;122098;-81
2022/04/21 19:54:00;;;;;;;12.05;5.95;;;;;;;14.34;50.00;101378.94;4795565;29;119706;-81
2022/04/21 19:56:26;;;;;;;9.23;5.72;;;;;;;14.28;49.96;101386.28;4797021;29;121440;-81
2022/04/21 19:58:52;;;;;;;13.38;5.50;;;;;;;14.31;50.49;101390.88;4792630;29;123885;-81
2022/04/21 20:01:17;;;;;;;10.55;5.60;;;;;;;14.22;50.26;101372.34;4808545;29;120767;-82
2022/04/21 20:03:45;;;;;;;8.15;5.65;;;;;;;14.26;50.58;101384.00;4793884;29;122352;-80
2022/04/21 20:08:55;;;;;;;;;;;;;;;14.25;50.58;101389.97;4811447;29;120048;-82
2022/04/21 20:11:22;;;;;;;10.57;5.40;;;;;;;14.16;50.78;101379.66;4811690;29;122031;-80
2022/04/21 20:13:48;;;;;;;9.82;4.80;;;;;;;14.18;50.80;101381.97;4800444;29;123368;-81
2022/04/21 20:16:15;;;;;;;9.95;4.95;;;;;;;14.21;50.80;101390.13;4810710;29;122732;-81
2022/04/21 20:18:42;;;;;;;9.68;4.97;;;;;;;14.13;50.74;101375.84;4810134;29;122878;-81
2022/04/21 20:23:52;;;;;;;11.52;5.20;;;;;;;14.08;51.04;101384.72;4793034;29;121892;-81
2022/04/21 20:26:37;;;;;;;9.23;5.18;;;;;;;13.97;51.55;101383.66;4793573;29;119972;-83
2022/04/21 20:29:07;;;;;;;9.40;5.55;;;;;;;13.94;51.70;101385.31;4795879;29;119815;-81
2022/04/21 20:31:36;;;;;;;11.35;5.10;;;;;;;13.99;52.08;101384.72;4811242;29;119410;-82
2022/04/21 20:34:02;;;;;;;8.70;4.93;;;;;;;13.94;52.25;101379.78;4811204;29;123652;-81
2022/04/21 20:36:28;;;;;;;8.80;4.95;;;;;;;14.00;52.38;101391.00;4798959;29;120191;-79
2022/04/21 20:38:54;;;;;;;10.43;5.70;;;;;;;13.98;52.28;101391.47;4794238;29;122624;-81
2022/04/21 20:41:21;;;;;;;11.65;5.28;;;;;;;13.94;52.34;101390.81;4812964;29;119843;-82
2022/04/21 20:43:47;;;;;;;12.98;5.70;;;;;;;13.88;52.56;101383.59;4812108;29;119828;-82
2022/04/21 20:46:13;;;;;;;9.50;5.07;;;;;;;13.88;53.02;101392.66;4809549;29;122560;-81
2022/04/21 20:48:38;;;;;;;11.45;5.07;;;;;;;13.85;52.97;101382.53;4794513;29;119988;-81
2022/04/21 20:51:04;;;;;;;10.80;5.82;;;;;;;13.80;53.28;101374.88;4795460;29;121026;-81
2022/04/21 20:53:30;;;;;;;9.52;5.47;;;;;;;13.77;53.42;101386.81;4811418;29;120008;-81
2022/04/21 20:55:55;;;;;;;8.35;5.40;;;;;;;13.70;53.16;101374.06;4810321;29;119694;-81
2022/04/21 20:58:23;;;;;;;8.52;5.10;;;;;;;13.70;53.56;101376.81;4799375;29;121553;-81
2022/04/21 21:00:49;;;;;;;9.13;5.38;;;;;;;13.62;53.62;101364.53;4812328;29;120082;-83
2022/04/21 21:03:15;;;;;;;9.98;5.13;;;;;;;13.61;53.76;101365.00;4810484;29;120388;-84
2022/04/21 21:05:40;;;;;;;11.25;5.18;;;;;;;13.62;53.85;101372.81;4793770;29;123230;-84
2022/04/21 21:08:06;;;;;;;11.20;5.18;;;;;;;13.67;54.13;101385.22;4806251;29;121190;-82
2022/04/21 21:10:32;;;;;;;8.95;4.90;;;;;;;13.67;54.07;101383.25;4809304;29;120236;-84
2022/04/21 21:12:58;;;;;;;13.75;5.38;;;;;;;13.56;54.16;101371.88;4790139;29;122789;-82
2022/04/21 21:15:23;;;;;;;7.47;5.57;;;;;;;13.61;53.86;101373.28;4808486;29;120209;-82
2022/04/21 21:17:49;;;;;;;8.02;4.82;;;;;;;13.56;54.18;101371.13;4814881;29;122005;-80
2022/04/21 21:20:17;;;;;;;9.05;4.75;;;;;;;13.55;54.06;101378.63;4808474;29;119853;-81
2022/04/21 21:22:44;;;;;;;8.80;5.15;;;;;;;13.51;54.36;101376.00;4778822;29;122110;-81
2022/04/21 21:25:10;;;;;;;9.85;4.82;;;;;;;13.47;54.56;101372.59;4778715;29;123275;-82
2022/04/21 21:27:36;;;;;;;12.25;5.28;;;;;;;13.46;54.35;101362.03;4813198;29;119474;-83
2022/04/21 21:30:07;;;;;;;8.50;5.00;;;;;;;13.49;54.75;101377.69;4795167;29;121668;-81
2022/04/21 21:32:38;;;;;;;12.38;6.18;;;;;;;13.47;54.96;101364.31;4811196;28;120270;-81
2022/04/21 21:35:04;;;;;;;10.15;6.22;;;;;;;13.45;55.28;101360.50;4793296;29;120473;-81
2022/04/21 21:37:29;;;;;;;10.05;5.63;;;;;;;13.45;55.50;101366.00;4807387;29;119861;-80
2022/04/21 21:39:56;;;;;;;12.32;7.03;;;;;;;13.39;55.62;101348.53;4813396;29;120461;-82
2022/04/21 21:42:24;;;;;;;12.65;7.32;;;;;;;13.46;56.05;101364.78;4810944;29;122075;-83
2022/04/21 21:44:50;;;;;;;13.82;6.72;;;;;;;13.36;56.34;101361.22;4794582;29;122576;-83
2022/04/21 21:47:16;;;;;;;13.13;6.97;;;;;;;13.35;56.76;101365.22;4809176;29;120237;-82
2022/04/21 21:55:18;;;;;;;15.90;7.30;;;;;;;13.28;57.38;101359.97;4795059;29;120057;-81
2022/04/21 21:57:44;;;;;;;14.02;7.63;;;;;;;13.31;57.76;101367.34;4794455;23;122116;-94
2022/04/21 22:00:19;;;;;;;14.18;7.75;;;;;;;13.28;57.61;101356.47;4833598;29;120370;-92
2022/04/21 22:02:54;;;;;;;12.68;7.32;;;;;;;13.32;57.43;101368.88;4816480;29;119334;-92
2022/04/21 22:05:22;;;;;;;13.57;7.60;;;;;;;13.36;57.43;101368.72;4820696;29;120552;-91
2022/04/21 22:07:48;;;;;;;13.25;7.13;;;;;;;13.33;57.71;101367.66;4814395;29;120370;-91
2022/04/21 22:10:17;;;;;;;13.23;7.53;;;;;;;13.12;57.66;101340.88;4811091;29;121069;-91
2022/04/21 22:12:43;;;;;;;9.90;7.18;;;;;;;13.30;57.18;101363.06;4792860;29;121893;-94
2022/04/21 22:15:12;;;;;;;10.68;6.93;;;;;;;12.97;57.01;101312.34;4828816;29;119533;-94
2022/04/21 22:17:40;;;;;;;10.88;6.85;;;;;;;12.96;56.97;101314.31;4826096;29;119823;-92
2022/04/21 22:20:11;;;;;;;;;;;;;;;13.24;56.81;101364.84;4798045;29;122408;-92
2022/04/21 22:22:41;;;;;;;11.10;6.47;;;;;;;12.70;56.77;101268.91;4813359;29;118485;-94
2022/04/21 22:25:09;;;;;;;7.93;6.13;;;;;;;12.86;56.50;101307.25;4788488;29;121603;-93
2022/04/21 22:27:35;;;;;;;11.77;5.90;;;;;;;13.15;56.31;101354.53;4807454;29;119099;-94
2022/04/21 22:30:11;;;;;;;8.48;6.10;;;;;;;12.73;56.21;101293.56;4825817;29;119531;-93
2022/04/21 22:32:43;;;;;;;9.00;6.00;;;;;;;12.97;55.96;101320.59;4811685;29;121673;-93
2022/04/21 22:35:10;;;;;;;12.60;6.05;;;;;;;12.68;55.84;101280.38;4828066;29;119057;-93
2022/04/21 22:37:36;;;;;;;10.43;5.70;;;;;;;13.18;55.49;101350.13;4827858;29;119504;-93
2022/04/21 22:40:03;;;;;;;8.52;5.28;;;;;;;12.61;55.53;101266.88;4809613;29;123072;-93
2022/04/21 22:42:36;;;;;;;10.88;5.05;;;;;;;12.63;55.71;101266.44;4811262;29;121556;-95
2022/04/21 22:45:11;;;;;;;6.25;4.60;;;;;;;12.65;55.40;101275.78;4806166;29;119971;-93
2022/04/21 22:47:43;;;;;;;8.82;4.85;;;;;;;13.16;55.55;101345.03;4808157;29;122304;-93
2022/04/21 22:50:10;;;;;;;8.43;4.50;;;;;;;13.01;55.34;101326.75;4799090;29;120928;-91
2022/04/21 22:52:38;;;;;;;8.85;5.03;;;;;;;12.94;55.21;101318.75;4823602;29;122201;-94
2022/04/21 22:55:06;;;;;;;8.18;4.10;;;;;;;13.04;55.54;101337.66;4813366;29;119350;-92
2022/04/21 22:57:34;;;;;;;8.23;4.00;;;;;;;12.63;55.56;101275.47;4793306;29;120573;-91
2022/04/21 23:00:00;;;;;;;6.88;4.20;;;;;;;13.06;55.87;101339.94;4810703;29;121388;-94
2022/04/21 23:02:25;;;;;;;8.45;4.28;;;;;;;12.67;55.41;101280.84;4796281;29;118524;-92
2022/04/21 23:04:51;;;;;;;5.13;4.30;;;;;;;12.87;55.85;101306.03;4796332;29;120996;-94
2022/04/21 23:07:17;;;;;;;6.68;3.90;;;;;;;13.05;55.51;101327.41;4797484;29;122782;-92
2022/04/21 23:15:15;;;;;;;7.50;3.67;;;;;;;12.76;54.89;101295.41;4829172;29;119139;-91
2022/04/21 23:17:45;;;;;;;4.68;3.70;;;;;;;12.93;55.27;101315.22;4791793;29;121854;-92
2022/04/21 23:20:11;;;;;;;5.03;3.25;;;;;;;12.49;55.33;101251.97;4809759;29;122451;-92
2022/04/21 23:22:39;;;;;;;6.07;3.50;;;;;;;12.46;54.87;101244.63;4796104;29;119369;-92
2022/04/21 23:25:06;;;;;;;11.00;4.18;;;;;;;12.68;55.52;101280.38;4810937;29;118964;-94
2022/04/21 23:27:31;;;;;;;7.32;3.15;;;;;;;12.96;54.66;101321.81;4810315;29;122555;-92
2022/04/21 23:30:08;;;;;;;;;;;;;;;;;;;;;
2022/04/21 23:32:38;;;;;;;4.10;2.80;;;;;;;12.43;54.43;101233.75;4816808;29;121420;-92
2022/04/21 23:35:07;;;;;;;4.47;2.53;;;;;;;12.77;54.35;101280.41;4830704;29;120338;-93
2022/04/21 23:40:20;;;;;;;6.10;2.80;;;;;;;12.52;54.67;101244.81;4828806;29;120253;-93
2022/04/21 23:42:46;;;;;;;6.03;2.80;;;;;;;12.94;54.43;101297.50;4814062;29;120126;-93
2022/04/21 23:45:23;;;;;;;4.72;2.55;;;;;;;12.80;54.31;101276.03;4812462;29;120411;-93
2022/04/21 23:47:53;;;;;;;2.72;2.03;;;;;;;12.97;54.08;101298.56;4828700;29;122001;-92
2022/04/21 23:50:21;;;;;;;5.45;2.40;;;;;;;12.50;53.55;101223.25;4814703;29;119130;-93
2022/04/21 23:52:50;;;;;;;4.53;2.40;;;;;;;12.90;53.41;101281.13;4802856;29;121538;-91
2022/04/21 23:55:16;;;;;;;4.95;2.40;;;;;;;12.99;53.42;101293.38;4814013;29;118524;-92
2022/04/21 23:57:43;;;;;;;4.50;2.30;;;;;;;12.76;52.74;101259.63;4813888;29;121519;-94
